sensor_id;sensor_type;location;lat;lon;timestamp;P1;durP1;ratioP1;P2;durP2;ratioP2
71435;SDS011;59251;51.326;12.370;2022-09-12T00:01:21;16.00;;;8.47;;
71435;SDS011;59251;51.326;12.370;2022-09-12T00:03:56;14.27;;;7.38;;
71435;SDS011;59251;51.326;12.370;2022-09-12T00:06:25;16.08;;;8.65;;
71435;SDS011;59251;51.326;12.370;2022-09-12T00:08:59;17.40;;;8.47;;
71435;SDS011;59251;51.326;12.370;2022-09-12T00:11:27;15.27;;;7.97;;
71435;SDS011;59251;51.326;12.370;2022-09-12T00:13:59;19.20;;;9.00;;
71435;SDS011;59251;51.326;12.370;2022-09-12T00:16:27;15.17;;;8.60;;
71435;SDS011;59251;51.326;12.370;2022-09-12T00:18:55;19.45;;;9.65;;
71435;SDS011;59251;51.326;12.370;2022-09-12T00:21:21;18.13;;;9.50;;
71435;SDS011;59251;51.326;12.370;2022-09-12T00:23:47;18.10;;;10.13;;
71435;SDS011;59251;51.326;12.370;2022-09-12T00:26:13;19.27;;;9.55;;
71435;SDS011;59251;51.326;12.370;2022-09-12T00:28:39;18.83;;;9.52;;
71435;SDS011;59251;51.326;12.370;2022-09-12T00:31:07;20.25;;;9.43;;
71435;SDS011;59251;51.326;12.370;2022-09-12T00:33:35;20.10;;;9.63;;
71435;SDS011;59251;51.326;12.370;2022-09-12T00:36:03;18.88;;;9.00;;
71435;SDS011;59251;51.326;12.370;2022-09-12T00:38:30;22.67;;;10.15;;
71435;SDS011;59251;51.326;12.370;2022-09-12T00:40:56;22.35;;;10.25;;
71435;SDS011;59251;51.326;12.370;2022-09-12T00:43:55;20.75;;;10.38;;
71435;SDS011;59251;51.326;12.370;2022-09-12T00:54:28;17.15;;;8.80;;
71435;SDS011;59251;51.326;12.370;2022-09-12T00:56:59;17.23;;;9.13;;
71435;SDS011;59251;51.326;12.370;2022-09-12T00:59:29;18.93;;;9.13;;
71435;SDS011;59251;51.326;12.370;2022-09-12T01:01:59;19.67;;;9.77;;
71435;SDS011;59251;51.326;12.370;2022-09-12T01:04:25;19.45;;;9.48;;
71435;SDS011;59251;51.326;12.370;2022-09-12T01:06:52;18.58;;;10.15;;
71435;SDS011;59251;51.326;12.370;2022-09-12T01:09:21;19.10;;;9.52;;
71435;SDS011;59251;51.326;12.370;2022-09-12T01:11:47;22.88;;;10.52;;
71435;SDS011;59251;51.326;12.370;2022-09-12T01:14:14;19.95;;;10.73;;
71435;SDS011;59251;51.326;12.370;2022-09-12T01:16:41;20.30;;;9.80;;
71435;SDS011;59251;51.326;12.370;2022-09-12T01:24:50;19.55;;;9.93;;
71435;SDS011;59251;51.326;12.370;2022-09-12T01:27:49;18.23;;;10.05;;
71435;SDS011;59251;51.326;12.370;2022-09-12T01:30:48;19.92;;;10.10;;
71435;SDS011;59251;51.326;12.370;2022-09-12T01:46:59;19.98;;;10.27;;
71435;SDS011;59251;51.326;12.370;2022-09-12T01:49:35;23.08;;;10.35;;
71435;SDS011;59251;51.326;12.370;2022-09-12T01:52:11;22.30;;;11.00;;
71435;SDS011;59251;51.326;12.370;2022-09-12T01:57:24;19.42;;;10.13;;
71435;SDS011;59251;51.326;12.370;2022-09-12T01:59:58;21.73;;;10.00;;
71435;SDS011;59251;51.326;12.370;2022-09-12T02:05:35;22.92;;;11.27;;
71435;SDS011;59251;51.326;12.370;2022-09-12T02:08:08;20.63;;;9.95;;
71435;SDS011;59251;51.326;12.370;2022-09-12T02:10:48;21.85;;;10.27;;
71435;SDS011;59251;51.326;12.370;2022-09-12T02:13:22;21.27;;;9.93;;
71435;SDS011;59251;51.326;12.370;2022-09-12T02:15:53;20.63;;;9.45;;
71435;SDS011;59251;51.326;12.370;2022-09-12T02:18:23;23.40;;;10.45;;
71435;SDS011;59251;51.326;12.370;2022-09-12T02:20:51;23.10;;;10.43;;
71435;SDS011;59251;51.326;12.370;2022-09-12T02:23:19;21.00;;;10.65;;
71435;SDS011;59251;51.326;12.370;2022-09-12T02:25:59;21.80;;;10.77;;
71435;SDS011;59251;51.326;12.370;2022-09-12T02:28:29;19.63;;;10.85;;
71435;SDS011;59251;51.326;12.370;2022-09-12T02:31:08;20.02;;;10.07;;
71435;SDS011;59251;51.326;12.370;2022-09-12T02:40:02;18.83;;;9.38;;
71435;SDS011;59251;51.326;12.370;2022-09-12T02:42:28;19.15;;;10.52;;
71435;SDS011;59251;51.326;12.370;2022-09-12T02:44:54;20.90;;;11.10;;
71435;SDS011;59251;51.326;12.370;2022-09-12T02:47:23;20.80;;;10.40;;
71435;SDS011;59251;51.326;12.370;2022-09-12T02:49:55;25.00;;;12.15;;
71435;SDS011;59251;51.326;12.370;2022-09-12T02:52:21;21.50;;;10.60;;
71435;SDS011;59251;51.326;12.370;2022-09-12T02:54:46;21.75;;;10.85;;
71435;SDS011;59251;51.326;12.370;2022-09-12T02:57:19;19.88;;;10.52;;
71435;SDS011;59251;51.326;12.370;2022-09-12T02:59:46;20.65;;;10.57;;
71435;SDS011;59251;51.326;12.370;2022-09-12T03:05:29;24.25;;;11.73;;
71435;SDS011;59251;51.326;12.370;2022-09-12T03:11:23;20.38;;;10.77;;
71435;SDS011;59251;51.326;12.370;2022-09-12T03:16:45;26.48;;;11.15;;
71435;SDS011;59251;51.326;12.370;2022-09-12T03:22:06;22.20;;;11.55;;
71435;SDS011;59251;51.326;12.370;2022-09-12T03:27:32;27.42;;;12.88;;
71435;SDS011;59251;51.326;12.370;2022-09-12T03:30:00;28.58;;;12.10;;
71435;SDS011;59251;51.326;12.370;2022-09-12T03:32:44;23.15;;;11.73;;
71435;SDS011;59251;51.326;12.370;2022-09-12T03:35:12;23.85;;;11.75;;
71435;SDS011;59251;51.326;12.370;2022-09-12T03:37:38;23.85;;;11.63;;
71435;SDS011;59251;51.326;12.370;2022-09-12T03:40:04;24.35;;;12.82;;
71435;SDS011;59251;51.326;12.370;2022-09-12T03:42:30;27.83;;;12.50;;
71435;SDS011;59251;51.326;12.370;2022-09-12T03:44:56;26.70;;;12.33;;
71435;SDS011;59251;51.326;12.370;2022-09-12T03:47:21;28.97;;;13.50;;
71435;SDS011;59251;51.326;12.370;2022-09-12T03:49:46;26.83;;;12.77;;
71435;SDS011;59251;51.326;12.370;2022-09-12T03:52:12;31.33;;;13.18;;
71435;SDS011;59251;51.326;12.370;2022-09-12T03:54:37;27.08;;;12.68;;
71435;SDS011;59251;51.326;12.370;2022-09-12T03:57:03;33.27;;;14.73;;
71435;SDS011;59251;51.326;12.370;2022-09-12T03:59:29;32.75;;;15.98;;
71435;SDS011;59251;51.326;12.370;2022-09-12T04:01:54;31.47;;;13.80;;
71435;SDS011;59251;51.326;12.370;2022-09-12T04:04:20;32.20;;;13.90;;
71435;SDS011;59251;51.326;12.370;2022-09-12T04:06:45;26.70;;;12.30;;
71435;SDS011;59251;51.326;12.370;2022-09-12T04:09:11;29.55;;;13.48;;
71435;SDS011;59251;51.326;12.370;2022-09-12T04:11:36;31.90;;;14.03;;
71435;SDS011;59251;51.326;12.370;2022-09-12T04:14:01;28.90;;;12.70;;
71435;SDS011;59251;51.326;12.370;2022-09-12T04:16:27;32.53;;;13.37;;
71435;SDS011;59251;51.326;12.370;2022-09-12T04:18:52;27.87;;;12.77;;
71435;SDS011;59251;51.326;12.370;2022-09-12T04:21:18;29.08;;;13.63;;
71435;SDS011;59251;51.326;12.370;2022-09-12T04:23:46;30.05;;;12.60;;
71435;SDS011;59251;51.326;12.370;2022-09-12T04:26:12;29.00;;;12.77;;
71435;SDS011;59251;51.326;12.370;2022-09-12T04:28:39;30.90;;;13.02;;
71435;SDS011;59251;51.326;12.370;2022-09-12T04:31:06;26.77;;;11.68;;
71435;SDS011;59251;51.326;12.370;2022-09-12T04:33:34;24.50;;;11.63;;
71435;SDS011;59251;51.326;12.370;2022-09-12T04:36:10;26.58;;;12.45;;
71435;SDS011;59251;51.326;12.370;2022-09-12T04:38:40;27.10;;;12.37;;
71435;SDS011;59251;51.326;12.370;2022-09-12T04:41:13;27.13;;;11.88;;
71435;SDS011;59251;51.326;12.370;2022-09-12T04:43:41;27.08;;;12.68;;
71435;SDS011;59251;51.326;12.370;2022-09-12T04:46:08;27.60;;;13.77;;
71435;SDS011;59251;51.326;12.370;2022-09-12T04:48:35;29.38;;;13.55;;
71435;SDS011;59251;51.326;12.370;2022-09-12T04:51:07;28.10;;;13.80;;
71435;SDS011;59251;51.326;12.370;2022-09-12T04:53:39;28.88;;;12.63;;
71435;SDS011;59251;51.326;12.370;2022-09-12T04:56:06;25.88;;;13.82;;
71435;SDS011;59251;51.326;12.370;2022-09-12T04:58:33;26.98;;;14.05;;
71435;SDS011;59251;51.326;12.370;2022-09-12T05:01:12;30.38;;;14.07;;
71435;SDS011;59251;51.326;12.370;2022-09-12T05:03:41;29.83;;;13.50;;
71435;SDS011;59251;51.326;12.370;2022-09-12T05:06:09;28.58;;;13.95;;
71435;SDS011;59251;51.326;12.370;2022-09-12T05:08:37;28.77;;;15.05;;
71435;SDS011;59251;51.326;12.370;2022-09-12T05:11:06;29.15;;;14.05;;
71435;SDS011;59251;51.326;12.370;2022-09-12T05:13:35;30.15;;;14.18;;
71435;SDS011;59251;51.326;12.370;2022-09-12T05:16:01;30.25;;;14.35;;
71435;SDS011;59251;51.326;12.370;2022-09-12T05:18:30;32.08;;;14.77;;
71435;SDS011;59251;51.326;12.370;2022-09-12T05:20:57;27.45;;;13.75;;
71435;SDS011;59251;51.326;12.370;2022-09-12T05:23:23;26.77;;;14.00;;
71435;SDS011;59251;51.326;12.370;2022-09-12T05:25:52;31.63;;;12.83;;
71435;SDS011;59251;51.326;12.370;2022-09-12T05:28:19;23.95;;;12.30;;
71435;SDS011;59251;51.326;12.370;2022-09-12T05:30:45;23.48;;;11.60;;
71435;SDS011;59251;51.326;12.370;2022-09-12T05:33:11;24.37;;;12.47;;
71435;SDS011;59251;51.326;12.370;2022-09-12T05:35:37;24.25;;;11.98;;
71435;SDS011;59251;51.326;12.370;2022-09-12T05:38:03;27.58;;;12.57;;
71435;SDS011;59251;51.326;12.370;2022-09-12T05:40:30;21.93;;;11.37;;
71435;SDS011;59251;51.326;12.370;2022-09-12T05:42:55;25.63;;;13.05;;
71435;SDS011;59251;51.326;12.370;2022-09-12T05:45:21;23.67;;;12.27;;
71435;SDS011;59251;51.326;12.370;2022-09-12T05:47:47;27.35;;;13.45;;
71435;SDS011;59251;51.326;12.370;2022-09-12T05:50:13;29.20;;;13.70;;
71435;SDS011;59251;51.326;12.370;2022-09-12T05:52:38;23.17;;;11.95;;
71435;SDS011;59251;51.326;12.370;2022-09-12T05:55:04;28.70;;;13.83;;
71435;SDS011;59251;51.326;12.370;2022-09-12T05:57:30;25.98;;;13.20;;
71435;SDS011;59251;51.326;12.370;2022-09-12T05:59:55;28.50;;;13.37;;
71435;SDS011;59251;51.326;12.370;2022-09-12T06:02:21;23.23;;;12.03;;
71435;SDS011;59251;51.326;12.370;2022-09-12T06:04:46;29.17;;;13.07;;
71435;SDS011;59251;51.326;12.370;2022-09-12T06:07:11;24.60;;;12.07;;
71435;SDS011;59251;51.326;12.370;2022-09-12T06:09:37;24.98;;;12.27;;
71435;SDS011;59251;51.326;12.370;2022-09-12T06:12:02;24.27;;;12.03;;
71435;SDS011;59251;51.326;12.370;2022-09-12T06:14:28;24.52;;;12.85;;
71435;SDS011;59251;51.326;12.370;2022-09-12T06:16:54;25.30;;;11.80;;
71435;SDS011;59251;51.326;12.370;2022-09-12T06:19:19;22.07;;;12.20;;
71435;SDS011;59251;51.326;12.370;2022-09-12T06:21:47;22.85;;;11.65;;
71435;SDS011;59251;51.326;12.370;2022-09-12T06:24:17;25.92;;;11.90;;
71435;SDS011;59251;51.326;12.370;2022-09-12T06:26:44;23.25;;;11.88;;
71435;SDS011;59251;51.326;12.370;2022-09-12T06:29:11;27.50;;;12.93;;
71435;SDS011;59251;51.326;12.370;2022-09-12T06:31:37;26.02;;;12.48;;
71435;SDS011;59251;51.326;12.370;2022-09-12T06:34:06;21.98;;;12.18;;
71435;SDS011;59251;51.326;12.370;2022-09-12T06:36:41;25.70;;;12.15;;
71435;SDS011;59251;51.326;12.370;2022-09-12T06:39:12;21.77;;;11.98;;
71435;SDS011;59251;51.326;12.370;2022-09-12T06:41:40;22.47;;;10.93;;
71435;SDS011;59251;51.326;12.370;2022-09-12T06:44:06;21.70;;;10.75;;
71435;SDS011;59251;51.326;12.370;2022-09-12T06:46:31;19.87;;;11.00;;
71435;SDS011;59251;51.326;12.370;2022-09-12T06:48:58;21.40;;;10.75;;
71435;SDS011;59251;51.326;12.370;2022-09-12T06:51:24;23.20;;;11.00;;
71435;SDS011;59251;51.326;12.370;2022-09-12T06:53:53;22.17;;;11.05;;
71435;SDS011;59251;51.326;12.370;2022-09-12T06:56:20;24.30;;;11.30;;
71435;SDS011;59251;51.326;12.370;2022-09-12T06:58:47;22.73;;;11.23;;
71435;SDS011;59251;51.326;12.370;2022-09-12T07:01:18;20.77;;;10.20;;
71435;SDS011;59251;51.326;12.370;2022-09-12T07:03:52;21.05;;;10.90;;
71435;SDS011;59251;51.326;12.370;2022-09-12T07:06:20;24.40;;;10.88;;
71435;SDS011;59251;51.326;12.370;2022-09-12T07:08:48;25.00;;;11.13;;
71435;SDS011;59251;51.326;12.370;2022-09-12T07:13:41;23.83;;;11.13;;
71435;SDS011;59251;51.326;12.370;2022-09-12T07:16:07;22.25;;;10.90;;
71435;SDS011;59251;51.326;12.370;2022-09-12T07:18:34;22.00;;;10.80;;
71435;SDS011;59251;51.326;12.370;2022-09-12T07:21:02;25.07;;;10.90;;
71435;SDS011;59251;51.326;12.370;2022-09-12T07:23:29;20.63;;;10.15;;
71435;SDS011;59251;51.326;12.370;2022-09-12T07:25:55;22.33;;;10.65;;
71435;SDS011;59251;51.326;12.370;2022-09-12T07:28:25;21.53;;;11.53;;
71435;SDS011;59251;51.326;12.370;2022-09-12T07:30:53;20.33;;;10.18;;
71435;SDS011;59251;51.326;12.370;2022-09-12T07:33:19;22.33;;;11.05;;
71435;SDS011;59251;51.326;12.370;2022-09-12T07:35:46;22.73;;;11.00;;
71435;SDS011;59251;51.326;12.370;2022-09-12T07:38:11;22.77;;;11.07;;
71435;SDS011;59251;51.326;12.370;2022-09-12T07:40:37;19.37;;;10.67;;
71435;SDS011;59251;51.326;12.370;2022-09-12T07:43:02;19.85;;;10.38;;
71435;SDS011;59251;51.326;12.370;2022-09-12T07:45:28;22.30;;;10.27;;
71435;SDS011;59251;51.326;12.370;2022-09-12T07:47:53;19.73;;;10.70;;
71435;SDS011;59251;51.326;12.370;2022-09-12T07:50:19;17.70;;;9.90;;
71435;SDS011;59251;51.326;12.370;2022-09-12T07:52:44;19.03;;;10.10;;
71435;SDS011;59251;51.326;12.370;2022-09-12T07:55:10;19.33;;;9.50;;
71435;SDS011;59251;51.326;12.370;2022-09-12T07:57:35;17.50;;;9.57;;
71435;SDS011;59251;51.326;12.370;2022-09-12T08:00:02;17.15;;;9.30;;
71435;SDS011;59251;51.326;12.370;2022-09-12T08:02:28;18.35;;;9.40;;
71435;SDS011;59251;51.326;12.370;2022-09-12T08:04:54;20.23;;;10.10;;
71435;SDS011;59251;51.326;12.370;2022-09-12T08:07:19;19.83;;;9.47;;
71435;SDS011;59251;51.326;12.370;2022-09-12T08:09:45;18.93;;;9.80;;
71435;SDS011;59251;51.326;12.370;2022-09-12T08:12:10;16.42;;;8.98;;
71435;SDS011;59251;51.326;12.370;2022-09-12T08:14:36;14.27;;;7.70;;
71435;SDS011;59251;51.326;12.370;2022-09-12T08:17:01;16.47;;;8.13;;
71435;SDS011;59251;51.326;12.370;2022-09-12T08:19:26;16.50;;;8.97;;
71435;SDS011;59251;51.326;12.370;2022-09-12T08:21:52;13.80;;;7.90;;
71435;SDS011;59251;51.326;12.370;2022-09-12T08:24:17;12.97;;;7.13;;
71435;SDS011;59251;51.326;12.370;2022-09-12T08:26:42;14.40;;;7.50;;
71435;SDS011;59251;51.326;12.370;2022-09-12T08:29:08;12.63;;;7.00;;
71435;SDS011;59251;51.326;12.370;2022-09-12T08:31:33;15.33;;;6.93;;
71435;SDS011;59251;51.326;12.370;2022-09-12T08:34:01;13.65;;;6.57;;
71435;SDS011;59251;51.326;12.370;2022-09-12T08:36:30;12.57;;;6.40;;
71435;SDS011;59251;51.326;12.370;2022-09-12T08:38:57;12.13;;;5.90;;
71435;SDS011;59251;51.326;12.370;2022-09-12T08:41:40;15.30;;;8.15;;
71435;SDS011;59251;51.326;12.370;2022-09-12T08:49:22;16.67;;;7.30;;
71435;SDS011;59251;51.326;12.370;2022-09-12T08:51:53;13.00;;;7.13;;
71435;SDS011;59251;51.326;12.370;2022-09-12T08:54:22;14.95;;;7.70;;
71435;SDS011;59251;51.326;12.370;2022-09-12T08:56:50;15.10;;;8.15;;
71435;SDS011;59251;51.326;12.370;2022-09-12T08:59:21;15.90;;;8.07;;
71435;SDS011;59251;51.326;12.370;2022-09-12T09:01:47;18.43;;;8.33;;
71435;SDS011;59251;51.326;12.370;2022-09-12T09:04:28;15.35;;;8.43;;
71435;SDS011;59251;51.326;12.370;2022-09-12T09:07:05;17.63;;;8.38;;
71435;SDS011;59251;51.326;12.370;2022-09-12T09:17:54;11.98;;;5.57;;
71435;SDS011;59251;51.326;12.370;2022-09-12T09:22:53;12.63;;;5.53;;
71435;SDS011;59251;51.326;12.370;2022-09-12T09:25:23;14.27;;;6.80;;
71435;SDS011;59251;51.326;12.370;2022-09-12T09:27:57;10.95;;;5.95;;
71435;SDS011;59251;51.326;12.370;2022-09-12T09:30:28;12.57;;;5.60;;
71435;SDS011;59251;51.326;12.370;2022-09-12T09:32:55;12.77;;;5.53;;
71435;SDS011;59251;51.326;12.370;2022-09-12T09:35:28;13.30;;;5.23;;
71435;SDS011;59251;51.326;12.370;2022-09-12T09:38:21;11.73;;;4.93;;
71435;SDS011;59251;51.326;12.370;2022-09-12T09:43:24;10.30;;;4.60;;
71435;SDS011;59251;51.326;12.370;2022-09-12T09:45:53;10.25;;;5.00;;
71435;SDS011;59251;51.326;12.370;2022-09-12T09:51:00;9.10;;;4.75;;
71435;SDS011;59251;51.326;12.370;2022-09-12T09:53:41;7.00;;;3.40;;
71435;SDS011;59251;51.326;12.370;2022-09-12T09:58:54;6.85;;;3.05;;
71435;SDS011;59251;51.326;12.370;2022-09-12T10:01:19;7.63;;;3.50;;
71435;SDS011;59251;51.326;12.370;2022-09-12T10:03:52;7.23;;;2.50;;
71435;SDS011;59251;51.326;12.370;2022-09-12T10:08:45;6.13;;;2.87;;
71435;SDS011;59251;51.326;12.370;2022-09-12T10:13:50;6.88;;;2.42;;
71435;SDS011;59251;51.326;12.370;2022-09-12T10:16:22;6.88;;;1.83;;
71435;SDS011;59251;51.326;12.370;2022-09-12T10:18:52;5.40;;;2.00;;
71435;SDS011;59251;51.326;12.370;2022-09-12T10:21:35;6.38;;;2.60;;
71435;SDS011;59251;51.326;12.370;2022-09-12T10:26:56;6.95;;;3.17;;
71435;SDS011;59251;51.326;12.370;2022-09-12T10:29:32;6.25;;;2.60;;
71435;SDS011;59251;51.326;12.370;2022-09-12T10:32:04;6.90;;;3.10;;
71435;SDS011;59251;51.326;12.370;2022-09-12T10:34:36;6.30;;;2.30;;
71435;SDS011;59251;51.326;12.370;2022-09-12T10:37:22;6.32;;;2.30;;
71435;SDS011;59251;51.326;12.370;2022-09-12T10:39:54;7.32;;;2.42;;
71435;SDS011;59251;51.326;12.370;2022-09-12T10:45:30;9.10;;;3.10;;
71435;SDS011;59251;51.326;12.370;2022-09-12T10:48:01;7.40;;;3.58;;
71435;SDS011;59251;51.326;12.370;2022-09-12T10:50:44;7.97;;;4.05;;
71435;SDS011;59251;51.326;12.370;2022-09-12T10:53:13;8.52;;;3.63;;
71435;SDS011;59251;51.326;12.370;2022-09-12T10:55:40;10.27;;;3.17;;
71435;SDS011;59251;51.326;12.370;2022-09-12T10:58:28;7.75;;;3.08;;
71435;SDS011;59251;51.326;12.370;2022-09-12T11:01:47;6.35;;;2.67;;
71435;SDS011;59251;51.326;12.370;2022-09-12T11:09:36;6.47;;;2.70;;
71435;SDS011;59251;51.326;12.370;2022-09-12T11:17:24;9.02;;;3.20;;
71435;SDS011;59251;51.326;12.370;2022-09-12T11:20:09;6.82;;;2.80;;
71435;SDS011;59251;51.326;12.370;2022-09-12T11:30:44;6.03;;;2.60;;
71435;SDS011;59251;51.326;12.370;2022-09-12T11:33:27;6.47;;;2.75;;
71435;SDS011;59251;51.326;12.370;2022-09-12T11:36:12;6.13;;;2.43;;
71435;SDS011;59251;51.326;12.370;2022-09-12T11:38:49;7.30;;;2.42;;
71435;SDS011;59251;51.326;12.370;2022-09-12T11:41:36;6.03;;;2.55;;
71435;SDS011;59251;51.326;12.370;2022-09-12T11:46:50;6.68;;;2.03;;
71435;SDS011;59251;51.326;12.370;2022-09-12T11:49:18;6.20;;;2.40;;
71435;SDS011;59251;51.326;12.370;2022-09-12T11:54:59;5.73;;;2.30;;
71435;SDS011;59251;51.326;12.370;2022-09-12T12:00:23;5.35;;;2.05;;
71435;SDS011;59251;51.326;12.370;2022-09-12T12:05:33;7.72;;;2.40;;
71435;SDS011;59251;51.326;12.370;2022-09-12T12:08:00;9.90;;;2.40;;
71435;SDS011;59251;51.326;12.370;2022-09-12T12:13:29;5.50;;;2.60;;
71435;SDS011;59251;51.326;12.370;2022-09-12T12:16:05;6.78;;;2.53;;
71435;SDS011;59251;51.326;12.370;2022-09-12T12:18:40;5.72;;;2.20;;
71435;SDS011;59251;51.326;12.370;2022-09-12T12:21:30;7.33;;;2.10;;
71435;SDS011;59251;51.326;12.370;2022-09-12T12:26:44;7.15;;;2.50;;
71435;SDS011;59251;51.326;12.370;2022-09-12T12:34:35;6.15;;;1.90;;
71435;SDS011;59251;51.326;12.370;2022-09-12T12:45:02;5.97;;;1.90;;
71435;SDS011;59251;51.326;12.370;2022-09-12T12:55:21;5.30;;;1.98;;
71435;SDS011;59251;51.326;12.370;2022-09-12T12:57:51;5.93;;;1.90;;
71435;SDS011;59251;51.326;12.370;2022-09-12T13:05:46;5.78;;;2.00;;
71435;SDS011;59251;51.326;12.370;2022-09-12T13:10:47;5.30;;;1.93;;
71435;SDS011;59251;51.326;12.370;2022-09-12T13:13:35;5.25;;;2.00;;
71435;SDS011;59251;51.326;12.370;2022-09-12T13:16:27;6.85;;;2.10;;
71435;SDS011;59251;51.326;12.370;2022-09-12T13:19:21;6.97;;;2.03;;
71435;SDS011;59251;51.326;12.370;2022-09-12T13:22:02;6.77;;;2.03;;
71435;SDS011;59251;51.326;12.370;2022-09-12T13:24:33;10.10;;;1.98;;
71435;SDS011;59251;51.326;12.370;2022-09-12T13:27:15;5.18;;;1.90;;
71435;SDS011;59251;51.326;12.370;2022-09-12T13:29:45;5.15;;;1.80;;
71435;SDS011;59251;51.326;12.370;2022-09-12T13:32:11;6.88;;;1.98;;
71435;SDS011;59251;51.326;12.370;2022-09-12T13:40:03;7.85;;;1.90;;
71435;SDS011;59251;51.326;12.370;2022-09-12T13:45:06;4.93;;;1.85;;
71435;SDS011;59251;51.326;12.370;2022-09-12T13:47:42;4.90;;;1.80;;
71435;SDS011;59251;51.326;12.370;2022-09-12T13:50:22;5.30;;;1.80;;
71435;SDS011;59251;51.326;12.370;2022-09-12T13:52:51;5.65;;;2.30;;
71435;SDS011;59251;51.326;12.370;2022-09-12T13:55:22;5.90;;;2.13;;
71435;SDS011;59251;51.326;12.370;2022-09-12T13:58:00;6.03;;;2.42;;
71435;SDS011;59251;51.326;12.370;2022-09-12T14:00:29;7.73;;;2.00;;
71435;SDS011;59251;51.326;12.370;2022-09-12T14:02:56;4.55;;;1.50;;
71435;SDS011;59251;51.326;12.370;2022-09-12T14:05:42;6.50;;;1.95;;
71435;SDS011;59251;51.326;12.370;2022-09-12T14:08:10;5.65;;;1.77;;
71435;SDS011;59251;51.326;12.370;2022-09-12T14:10:40;5.22;;;2.00;;
71435;SDS011;59251;51.326;12.370;2022-09-12T14:13:09;5.57;;;2.17;;
71435;SDS011;59251;51.326;12.370;2022-09-12T14:15:37;6.35;;;2.15;;
71435;SDS011;59251;51.326;12.370;2022-09-12T14:18:19;5.82;;;2.03;;
71435;SDS011;59251;51.326;12.370;2022-09-12T14:20:53;7.15;;;2.17;;
71435;SDS011;59251;51.326;12.370;2022-09-12T14:23:30;5.25;;;2.10;;
71435;SDS011;59251;51.326;12.370;2022-09-12T14:25:58;6.60;;;2.00;;
71435;SDS011;59251;51.326;12.370;2022-09-12T14:28:27;5.03;;;1.95;;
71435;SDS011;59251;51.326;12.370;2022-09-12T14:33:27;6.30;;;2.42;;
71435;SDS011;59251;51.326;12.370;2022-09-12T14:36:19;9.02;;;2.50;;
71435;SDS011;59251;51.326;12.370;2022-09-12T14:38:51;5.73;;;2.10;;
71435;SDS011;59251;51.326;12.370;2022-09-12T14:41:30;5.95;;;2.10;;
71435;SDS011;59251;51.326;12.370;2022-09-12T14:44:02;6.03;;;2.20;;
71435;SDS011;59251;51.326;12.370;2022-09-12T14:49:01;7.07;;;2.30;;
71435;SDS011;59251;51.326;12.370;2022-09-12T14:51:33;5.93;;;2.30;;
71435;SDS011;59251;51.326;12.370;2022-09-12T14:54:00;7.93;;;2.40;;
71435;SDS011;59251;51.326;12.370;2022-09-12T14:56:41;6.88;;;2.40;;
71435;SDS011;59251;51.326;12.370;2022-09-12T15:05:30;5.70;;;2.40;;
71435;SDS011;59251;51.326;12.370;2022-09-12T15:07:38;6.28;;;2.67;;
71435;SDS011;59251;51.326;12.370;2022-09-12T15:10:09;6.80;;;2.60;;
71435;SDS011;59251;51.326;12.370;2022-09-12T15:12:49;7.20;;;2.30;;
71435;SDS011;59251;51.326;12.370;2022-09-12T15:15:16;7.10;;;2.47;;
71435;SDS011;59251;51.326;12.370;2022-09-12T15:17:45;9.75;;;2.75;;
71435;SDS011;59251;51.326;12.370;2022-09-12T15:20:11;7.53;;;2.30;;
71435;SDS011;59251;51.326;12.370;2022-09-12T15:22:38;6.50;;;2.60;;
71435;SDS011;59251;51.326;12.370;2022-09-12T15:25:04;5.72;;;2.50;;
71435;SDS011;59251;51.326;12.370;2022-09-12T15:27:30;8.85;;;3.03;;
71435;SDS011;59251;51.326;12.370;2022-09-12T15:29:56;7.00;;;2.72;;
71435;SDS011;59251;51.326;12.370;2022-09-12T15:32:23;7.55;;;2.78;;
71435;SDS011;59251;51.326;12.370;2022-09-12T15:34:55;7.40;;;2.50;;
71435;SDS011;59251;51.326;12.370;2022-09-12T15:37:21;10.13;;;2.75;;
71435;SDS011;59251;51.326;12.370;2022-09-12T15:39:48;6.03;;;2.53;;
71435;SDS011;59251;51.326;12.370;2022-09-12T15:42:14;7.00;;;3.10;;
71435;SDS011;59251;51.326;12.370;2022-09-12T15:44:40;7.57;;;2.50;;
71435;SDS011;59251;51.326;12.370;2022-09-12T15:47:10;6.38;;;2.65;;
71435;SDS011;59251;51.326;12.370;2022-09-12T15:49:37;6.10;;;2.40;;
71435;SDS011;59251;51.326;12.370;2022-09-12T15:52:03;7.45;;;2.35;;
71435;SDS011;59251;51.326;12.370;2022-09-12T15:54:29;6.83;;;2.47;;
71435;SDS011;59251;51.326;12.370;2022-09-12T15:56:54;7.65;;;2.45;;
71435;SDS011;59251;51.326;12.370;2022-09-12T15:59:19;6.70;;;2.20;;
71435;SDS011;59251;51.326;12.370;2022-09-12T16:01:45;7.83;;;2.50;;
71435;SDS011;59251;51.326;12.370;2022-09-12T16:04:21;6.25;;;2.53;;
71435;SDS011;59251;51.326;12.370;2022-09-12T16:06:52;6.38;;;2.55;;
71435;SDS011;59251;51.326;12.370;2022-09-12T16:09:18;7.87;;;2.47;;
71435;SDS011;59251;51.326;12.370;2022-09-12T16:11:45;6.70;;;2.42;;
71435;SDS011;59251;51.326;12.370;2022-09-12T16:14:14;7.35;;;2.92;;
71435;SDS011;59251;51.326;12.370;2022-09-12T16:16:41;6.38;;;2.50;;
71435;SDS011;59251;51.326;12.370;2022-09-12T16:19:07;6.63;;;2.40;;
71435;SDS011;59251;51.326;12.370;2022-09-12T16:21:34;7.03;;;2.22;;
71435;SDS011;59251;51.326;12.370;2022-09-12T16:24:01;7.40;;;2.70;;
71435;SDS011;59251;51.326;12.370;2022-09-12T16:26:26;6.57;;;2.50;;
71435;SDS011;59251;51.326;12.370;2022-09-12T16:28:55;7.33;;;2.57;;
71435;SDS011;59251;51.326;12.370;2022-09-12T16:31:22;7.38;;;2.70;;
71435;SDS011;59251;51.326;12.370;2022-09-12T16:33:48;6.97;;;2.83;;
71435;SDS011;59251;51.326;12.370;2022-09-12T16:36:14;6.18;;;2.33;;
71435;SDS011;59251;51.326;12.370;2022-09-12T16:38:46;5.60;;;2.40;;
71435;SDS011;59251;51.326;12.370;2022-09-12T16:41:13;8.40;;;2.83;;
71435;SDS011;59251;51.326;12.370;2022-09-12T16:43:40;7.70;;;2.85;;
71435;SDS011;59251;51.326;12.370;2022-09-12T16:46:17;7.05;;;2.58;;
71435;SDS011;59251;51.326;12.370;2022-09-12T16:48:46;7.05;;;3.38;;
71435;SDS011;59251;51.326;12.370;2022-09-12T16:51:13;7.97;;;3.70;;
71435;SDS011;59251;51.326;12.370;2022-09-12T16:53:39;8.25;;;3.33;;
71435;SDS011;59251;51.326;12.370;2022-09-12T16:56:05;8.50;;;3.53;;
71435;SDS011;59251;51.326;12.370;2022-09-12T16:58:31;9.30;;;3.40;;
71435;SDS011;59251;51.326;12.370;2022-09-12T17:00:58;9.55;;;3.80;;
71435;SDS011;59251;51.326;12.370;2022-09-12T17:03:26;8.03;;;3.40;;
71435;SDS011;59251;51.326;12.370;2022-09-12T17:06:00;6.57;;;3.15;;
71435;SDS011;59251;51.326;12.370;2022-09-12T17:08:27;9.18;;;3.70;;
71435;SDS011;59251;51.326;12.370;2022-09-12T17:11:00;11.60;;;4.23;;
71435;SDS011;59251;51.326;12.370;2022-09-12T17:13:26;10.25;;;4.15;;
71435;SDS011;59251;51.326;12.370;2022-09-12T17:15:52;8.38;;;4.28;;
71435;SDS011;59251;51.326;12.370;2022-09-12T17:18:18;9.83;;;3.60;;
71435;SDS011;59251;51.326;12.370;2022-09-12T17:20:43;7.68;;;4.10;;
71435;SDS011;59251;51.326;12.370;2022-09-12T17:23:09;9.53;;;4.50;;
71435;SDS011;59251;51.326;12.370;2022-09-12T17:25:34;8.60;;;4.27;;
71435;SDS011;59251;51.326;12.370;2022-09-12T17:28:00;8.07;;;4.07;;
71435;SDS011;59251;51.326;12.370;2022-09-12T17:30:29;7.95;;;3.90;;
71435;SDS011;59251;51.326;12.370;2022-09-12T17:32:54;7.90;;;3.50;;